Terminal Aerodrome Forecast
Issued by NWS Portland, OR

Home | Current Version | Previous Version | Text Only | Print | Product List | Glossary On
Versions: 1 2 3 4 5 6 7 8 9 10 11 12 13 14 15 16 17 18 19 20 21 22 23 24 25 26 27 28 29 30 31 32 33 34 35 36 37
000
FTUS46 KPQR 210301 AAA
TAFTTD
TAF AMD
KTTD 210301Z 2103/2124 23012G22KT 6SM -RA BR BKN015 BKN025 OVC035
     FM210600 22010KT P6SM -RA SCT015 BKN025 OVC040
     FM211800 22006KT P6SM -SHRA SCT025 OVC040=

USA.gov is the U.S. government's official web portal to all federal, state and local government web resources and services.